KTXK/TXK METAR and TAF weather

Enter ICAO airport designator
Station Type Date Time Source
KTXK METAR 2021/05/14 02:53 UTC NOAA

KTXK 140253Z AUTO 11004KT 10SM CLR 18/08 A3026 RMK AO2 SLP244 T01830083 53012


Station Type Date Time Source
KTXK Decoded METAR 2021/05/14 02:53 UTC NOAA

TEXARKANA RGNL WEBB FIELD, AR, United States (KTXK) 33-27N 093-59W 111M
May 13, 2021 - 10:53 PM EDT / 2021.05.14 0253 UTC
Wind: from the ESE (110 degrees) at 5 MPH (4 KT):0
Visibility: 10 mile(s):0
Sky conditions: clear
Temperature: 64.9 F (18.3 C)
Dew Point: 46.9 F (8.3 C)
Relative Humidity: 52%
Pressure (altimeter): 30.26 in. Hg (1024 hPa)
Pressure tendency: 0.04 inches (1.2 hPa) higher than three hours ago
ob: KTXK 140253Z AUTO 11004KT 10SM CLR 18/08 A3026 RMK AO2 SLP244 T01830083 53012
cycle: 3

Station Type Date Time Source
KTXK TAF 2021/05/13 18:33 UTC NOAA

TAF KTXK 131731Z 1318/1418 06007KT P6SM FEW050
FM140000 VRB03KT P6SM SKC
FM141600 11006KT P6SM SKC

Example: see airport list